Hassler — WTEK — position and weather

sailwx.info

Track history (hours):
 
Tides and Currents Weather Stations Pressure Air Temp Water Temp Dewpoint Dewpoint Depression Visibility Wind Speed Wind Dir Waves Ship Positions

Oceanographic research ship Hassler (USA)

Last reported at 2018-Apr-02 15:50 UTC. Time now 2018-May-28 01:27 UTC.
Position N 39°12' W 076°34'.
Warning: this ship's position is 55 days out of date.

Length 37 m; draft 3.8 m.

Type: . MMSI: 369970091.

Date/timePositionNaut miles runAvg speedWind from/ knotsBaromVisibWave heightAir tempDewpointWater temp
2018-Apr-02 15:50N 39°12' W 076°34'0 0.0
2018-Apr-02 15:08N 39°12' W 076°34'0 0.0
2018-Apr-02 14:56N 39°12' W 076°34'0 0.0
2018-Apr-02 14:24N 39°12' W 076°34'0 1.0
2018-Apr-02 14:00N 39°12' W 076°35'1 2.9
2018-Apr-02 13:30N 39°13' W 076°34'3 5.5
2018-Apr-02 13:00N 39°12' W 076°31'4 8.7
2018-Apr-02 12:30N 39°10' W 076°26'5 9.9
2018-Apr-02 11:57N 39°05' W 076°24'7 9.5
2018-Apr-02 11:15N 38°58' W 076°23'1 2.3
2018-Apr-02 10:46N 38°57' W 076°23'1 1.7
2018-Apr-02 10:20N 38°56' W 076°23'2 5.3
2018-Apr-02 10:00N 38°54' W 076°23'118 7.8
2018-Apr-01 18:53N 36°57' W 076°20'4 9.6
2018-Apr-01 18:30N 36°53' W 076°20'3 5.5
2018-Apr-01 18:00N 36°51' W 076°18'0 0.0
2018-Apr-01 17:30N 36°51' W 076°18'0 0.0
2018-Apr-01 17:00N 36°51' W 076°18'0 0.0
2018-Apr-01 16:30N 36°51' W 076°18'0 0.0
2018-Apr-01 16:00N 36°51' W 076°18'0 0.0
2018-Apr-01 15:30N 36°51' W 076°18'0 0.0
2018-Apr-01 15:00N 36°51' W 076°18'0 0.0
2018-Apr-01 14:30N 36°51' W 076°18'0 0.0
2018-Apr-01 14:00N 36°51' W 076°18'0 0.0
2018-Apr-01 13:30N 36°51' W 076°18'0 0.0
2018-Apr-01 13:00N 36°51' W 076°18'0 0.0
2018-Apr-01 12:30N 36°51' W 076°18'0 0.0
2018-Apr-01 12:00N 36°51' W 076°18'0 0.0
2018-Apr-01 11:30N 36°51' W 076°18'0 0.0
2018-Apr-01 11:00N 36°51' W 076°18'0 0.0
2018-Apr-01 10:30N 36°51' W 076°18'0 0.0
2018-Apr-01 10:00N 36°51' W 076°18'0 0.0
2018-Apr-01 09:30N 36°51' W 076°18'0 0.0
2018-Apr-01 09:00N 36°51' W 076°18'0 0.0
2018-Apr-01 08:30N 36°51' W 076°18'0 0.0
2018-Apr-01 08:00N 36°51' W 076°18'0 0.0
2018-Apr-01 07:30N 36°51' W 076°18'0 0.0
2018-Apr-01 07:00N 36°51' W 076°18'0 0.0
2018-Apr-01 06:30N 36°51' W 076°18'0 0.0
2018-Apr-01 06:00N 36°51' W 076°18'0 0.0
2018-Apr-01 05:30N 36°51' W 076°18'0 0.0
2018-Apr-01 05:00N 36°51' W 076°18'0 0.0
2018-Apr-01 04:30N 36°51' W 076°18'0 0.0
2018-Apr-01 04:00N 36°51' W 076°18'0 0.0
2018-Apr-01 03:30N 36°51' W 076°18'0 0.0
2018-Apr-01 03:00N 36°51' W 076°18'0 0.0
2018-Apr-01 02:30N 36°51' W 076°18'0 0.0
2018-Apr-01 02:00N 36°51' W 076°18'0 0.0
2018-Apr-01 01:30N 36°51' W 076°18'0 0.0
2018-Apr-01 01:00N 36°51' W 076°18'0 0.0
2018-Apr-01 00:30N 36°51' W 076°18'0 0.0
2018-Apr-01 00:00N 36°51' W 076°18'0 0.0
2018-Mar-31 23:30N 36°51' W 076°18'0 0.0
2018-Mar-31 22:57N 36°51' W 076°18'0 0.0
2018-Mar-31 22:30N 36°51' W 076°18'0 0.0
2018-Mar-31 22:00N 36°51' W 076°18'0 0.0
2018-Mar-31 21:30N 36°51' W 076°18'0 0.0
2018-Mar-31 21:00N 36°51' W 076°18'0 0.0
2018-Mar-31 20:30N 36°51' W 076°18'0 0.0
2018-Mar-31 20:00N 36°51' W 076°18'0 0.0
2018-Mar-31 19:30N 36°51' W 076°18'0 0.0
2018-Mar-31 19:00N 36°51' W 076°18'0 0.0
2018-Mar-31 18:30N 36°51' W 076°18'0 0.0
2018-Mar-31 18:00N 36°51' W 076°18'0 0.0
2018-Mar-31 17:30N 36°51' W 076°18'0 0.0
2018-Mar-31 17:00N 36°51' W 076°18'0 0.0
2018-Mar-31 16:30N 36°51' W 076°18'0 0.0
2018-Mar-31 16:00N 36°51' W 076°18'0 0.0
2018-Mar-31 15:30N 36°51' W 076°18'0 0.0
2018-Mar-31 15:00N 36°51' W 076°18'0 0.0
2018-Mar-31 14:30N 36°51' W 076°18'0 0.0
2018-Mar-31 14:00N 36°51' W 076°18'0 0.0
2018-Mar-31 13:30N 36°51' W 076°18'0 0.0
2018-Mar-31 13:00N 36°51' W 076°18'0 0.0
2018-Mar-31 12:30N 36°51' W 076°18'0 0.0
2018-Mar-31 12:00N 36°51' W 076°18'0 0.0
2018-Mar-31 11:30N 36°51' W 076°18'0 0.0
2018-Mar-31 11:00N 36°51' W 076°18'0 0.0
2018-Mar-31 10:30N 36°51' W 076°18'0 0.0
2018-Mar-31 10:00N 36°51' W 076°18'0 0.0
2018-Mar-31 09:30N 36°51' W 076°18'0 0.0
2018-Mar-31 09:00N 36°51' W 076°18'0 0.0
2018-Mar-31 08:30N 36°51' W 076°18'0 0.0
2018-Mar-31 08:00N 36°51' W 076°18'0 0.0
2018-Mar-31 07:30N 36°51' W 076°18'0 0.0
2018-Mar-31 07:00N 36°51' W 076°18'0 0.0
2018-Mar-31 06:30N 36°51' W 076°18'0 0.0
2018-Mar-31 06:00N 36°51' W 076°18'0 0.0
2018-Mar-31 05:30N 36°51' W 076°18'0 0.0
2018-Mar-31 05:00N 36°51' W 076°18'0 0.0
2018-Mar-31 04:30N 36°51' W 076°18'0 0.0
2018-Mar-31 04:00N 36°51' W 076°18'0 0.0
2018-Mar-31 03:30N 36°51' W 076°18'0 0.0
2018-Mar-31 03:00N 36°51' W 076°18'0 0.0
2018-Mar-31 02:30N 36°51' W 076°18'0 0.0
2018-Mar-31 02:00N 36°51' W 076°18'0 0.0
2018-Mar-31 01:30N 36°51' W 076°18'0 0.0
2018-Mar-31 01:00N 36°51' W 076°18'0 0.0
2018-Mar-31 00:30N 36°51' W 076°18'0 0.0
2018-Mar-31 00:00N 36°51' W 076°18'0 0.0
2018-Mar-30 23:30N 36°51' W 076°18'0 0.0
2018-Mar-30 23:00N 36°51' W 076°18'0 0.0
2018-Mar-30 22:30N 36°51' W 076°18'0 0.0
2018-Mar-30 22:00N 36°51' W 076°18'0 0.0
2018-Mar-30 21:30N 36°51' W 076°18'0 0.0
2018-Mar-30 21:00N 36°51' W 076°18'0 0.0
2018-Mar-30 20:30N 36°51' W 076°18'0 0.0
2018-Mar-30 20:00N 36°51' W 076°18'0 0.0
2018-Mar-30 19:30N 36°51' W 076°18'0 0.0
2018-Mar-30 19:00N 36°51' W 076°18'0 0.0
2018-Mar-30 18:30N 36°51' W 076°18'0 0.0
2018-Mar-30 18:00N 36°51' W 076°18'0 0.0
2018-Mar-30 17:30N 36°51' W 076°18'0 0.0
2018-Mar-30 17:00N 36°51' W 076°18'0 0.0
2018-Mar-30 16:30N 36°51' W 076°18'0 0.0
2018-Mar-30 16:00N 36°51' W 076°18'0 0.0
2018-Mar-30 15:30N 36°51' W 076°18'0 0.0
2018-Mar-30 15:00N 36°51' W 076°18'0 0.0
2018-Mar-30 14:30N 36°51' W 076°18'0 0.0
2018-Mar-30 14:00N 36°51' W 076°18'0 0.0
2018-Mar-30 13:30N 36°51' W 076°18'0 0.0
2018-Mar-30 13:00N 36°51' W 076°18'0 0.0
2018-Mar-30 12:30N 36°51' W 076°18'0 0.0
2018-Mar-30 12:00N 36°51' W 076°18'0 0.0
2018-Mar-30 11:30N 36°51' W 076°18'0 0.0
2018-Mar-30 11:00N 36°51' W 076°18'0 0.0
2018-Mar-30 10:30N 36°51' W 076°18'0 0.0
2018-Mar-30 10:00N 36°51' W 076°18'0 0.0
2018-Mar-30 09:30N 36°51' W 076°18'0 0.0
2018-Mar-30 09:00N 36°51' W 076°18'0 0.0
2018-Mar-30 08:30N 36°51' W 076°18'0 0.0
2018-Mar-30 08:00N 36°51' W 076°18'0 0.0
2018-Mar-30 07:30N 36°51' W 076°18'0 0.0
2018-Mar-30 07:00N 36°51' W 076°18'0 0.0
2018-Mar-30 06:30N 36°51' W 076°18'0 0.0
2018-Mar-30 06:00N 36°51' W 076°18'0 0.0
2018-Mar-30 05:30N 36°51' W 076°18'0 0.0
2018-Mar-30 05:00N 36°51' W 076°18'0 0.0
2018-Mar-30 04:30N 36°51' W 076°18'0 0.0
2018-Mar-30 04:00N 36°51' W 076°18'0 0.0
2018-Mar-30 03:30N 36°51' W 076°18'0 0.0
2018-Mar-30 03:00N 36°51' W 076°18'0 0.0
2018-Mar-30 02:30N 36°51' W 076°18'0 0.0
2018-Mar-30 02:00N 36°51' W 076°18'0 0.0
2018-Mar-30 01:30N 36°51' W 076°18'0 0.0
2018-Mar-30 01:00N 36°51' W 076°18'0 0.0
2018-Mar-30 00:30N 36°51' W 076°18'0 0.0
2018-Mar-30 00:00N 36°51' W 076°18'0 0.0
2018-Mar-29 23:30N 36°51' W 076°18'0 0.0
2018-Mar-29 23:00N 36°51' W 076°18'0 0.0
2018-Mar-29 22:27N 36°51' W 076°18'0 0.0
2018-Mar-29 22:00N 36°51' W 076°18'0 0.0
2018-Mar-29 21:30N 36°51' W 076°18'0 0.0
2018-Mar-29 21:00N 36°51' W 076°18'0 0.0
2018-Mar-29 20:30N 36°51' W 076°18'0 0.0
2018-Mar-29 20:00N 36°51' W 076°18'0 0.0
2018-Mar-29 19:30N 36°51' W 076°18'0 0.0
2018-Mar-29 19:00N 36°51' W 076°18'0 0.0
2018-Mar-29 18:30N 36°51' W 076°18'0 0.0
2018-Mar-29 18:00N 36°51' W 076°18'0 0.0
2018-Mar-29 17:30N 36°51' W 076°18'0 0.0
2018-Mar-29 17:00N 36°51' W 076°18'0 0.0
2018-Mar-29 16:30N 36°51' W 076°18'0 0.0
2018-Mar-29 16:00N 36°51' W 076°18'0 0.0
2018-Mar-29 15:30N 36°51' W 076°18'0 0.0
2018-Mar-29 15:00N 36°51' W 076°18'0 0.0
2018-Mar-29 14:30N 36°51' W 076°18'0 0.0
2018-Mar-29 14:00N 36°51' W 076°18'0 0.0
2018-Mar-29 13:30N 36°51' W 076°18'0 0.0
2018-Mar-29 13:00N 36°51' W 076°18'0 0.0
2018-Mar-29 12:30N 36°51' W 076°18'0 0.0
2018-Mar-29 12:00N 36°51' W 076°18'0 0.0
2018-Mar-29 11:30N 36°51' W 076°18'0 0.0
2018-Mar-29 11:00N 36°51' W 076°18'0 0.0
2018-Mar-29 10:30N 36°51' W 076°18'0 0.0
2018-Mar-29 10:00N 36°51' W 076°18'0 0.0
2018-Mar-29 09:30N 36°51' W 076°18'0 0.0
2018-Mar-29 09:00N 36°51' W 076°18'0 0.0
2018-Mar-29 08:30N 36°51' W 076°18'0 0.0
2018-Mar-29 08:00N 36°51' W 076°18'0 0.0
2018-Mar-29 07:30N 36°51' W 076°18'0 0.0
2018-Mar-29 07:00N 36°51' W 076°18'0 0.0
2018-Mar-29 06:30N 36°51' W 076°18'0 0.0
2018-Mar-29 06:00N 36°51' W 076°18'0 0.0
2018-Mar-29 05:30N 36°51' W 076°18'0 0.0
2018-Mar-29 05:00N 36°51' W 076°18'0 0.0
2018-Mar-29 04:30N 36°51' W 076°18'0 0.0
2018-Mar-29 04:00N 36°51' W 076°18'0 0.0
2018-Mar-29 03:30N 36°51' W 076°18'0 0.0
2018-Mar-29 03:00N 36°51' W 076°18'0 0.0
2018-Mar-29 02:27N 36°51' W 076°18'0 0.0
2018-Mar-29 02:00N 36°51' W 076°18'0 0.0
2018-Mar-29 01:30N 36°51' W 076°18'0 0.0
2018-Mar-29 01:00N 36°51' W 076°18'0 0.0
2018-Mar-29 00:30N 36°51' W 076°18'0 0.0
2018-Mar-29 00:00N 36°51' W 076°18'0 0.0
2018-Mar-28 23:30N 36°51' W 076°18'0 0.0
2018-Mar-28 23:00N 36°51' W 076°18'0 0.0
2018-Mar-28 22:30N 36°51' W 076°18'0 0.0
2018-Mar-28 22:00N 36°51' W 076°18'0 0.0
2018-Mar-28 21:30N 36°51' W 076°18'0 0.0
2018-Mar-28 21:00N 36°51' W 076°18'0 0.0
2018-Mar-28 20:30N 36°51' W 076°18'0 0.0
2018-Mar-28 20:00N 36°51' W 076°18'0 0.0
2018-Mar-28 19:30N 36°51' W 076°18'0 0.0
2018-Mar-28 19:00N 36°51' W 076°18'0 0.0
2018-Mar-28 18:30N 36°51' W 076°18'0 0.0
2018-Mar-28 18:00N 36°51' W 076°18'0 0.0
2018-Mar-28 17:30N 36°51' W 076°18'0 0.0
2018-Mar-28 17:00N 36°51' W 076°18'0 0.0
2018-Mar-28 16:30N 36°51' W 076°18'0 0.0
2018-Mar-28 16:00N 36°51' W 076°18'0 0.0
2018-Mar-28 15:30N 36°51' W 076°18'0 0.0
2018-Mar-28 14:57N 36°51' W 076°18'0 0.0
2018-Mar-28 14:27N 36°51' W 076°18'0 0.0
2018-Mar-28 14:00N 36°51' W 076°18'0 0.0
2018-Mar-28 13:30N 36°51' W 076°18'0 0.0
2018-Mar-28 13:00N 36°51' W 076°18'0 0.0
2018-Mar-28 12:30N 36°51' W 076°18'0 0.0
2018-Mar-28 12:00N 36°51' W 076°18'0 0.0
2018-Mar-28 11:30N 36°51' W 076°18'0 0.0
2018-Mar-28 11:00N 36°51' W 076°18'0 0.0
2018-Mar-28 10:30N 36°51' W 076°18'0 0.0
2018-Mar-28 10:00N 36°51' W 076°18'0 0.0
2018-Mar-28 09:30N 36°51' W 076°18'0 0.0
2018-Mar-28 09:00N 36°51' W 076°18'0 0.0
2018-Mar-28 08:30N 36°51' W 076°18'0 0.0
2018-Mar-28 08:00N 36°51' W 076°18'0 0.0
2018-Mar-28 07:30N 36°51' W 076°18'0 0.0
2018-Mar-28 07:00N 36°51' W 076°18'0 0.0
2018-Mar-28 06:30N 36°51' W 076°18'0 0.0
2018-Mar-28 06:00N 36°51' W 076°18'0 0.0
2018-Mar-28 05:30N 36°51' W 076°18'0 0.0
2018-Mar-28 05:00N 36°51' W 076°18'0 0.0
2018-Mar-28 04:30N 36°51' W 076°18'0 0.0
2018-Mar-28 04:00N 36°51' W 076°18'0 0.0
2018-Mar-28 03:30N 36°51' W 076°18'0 0.0
2018-Mar-28 03:00N 36°51' W 076°18'0 0.0
2018-Mar-28 02:30N 36°51' W 076°18'0 0.0
2018-Mar-28 01:54N 36°51' W 076°18'0 0.0
2018-Mar-28 01:30N 36°51' W 076°18'0 0.0
2018-Mar-28 01:00N 36°51' W 076°18'0 0.0
2018-Mar-28 00:30N 36°51' W 076°18'0 0.0
2018-Mar-28 00:00N 36°51' W 076°18'0 0.0
2018-Mar-27 23:30N 36°51' W 076°18'0 0.0
2018-Mar-27 23:00N 36°51' W 076°18'0 0.0
2018-Mar-27 22:30N 36°51' W 076°18'0 0.0
2018-Mar-27 22:00N 36°51' W 076°18'0 0.0
2018-Mar-27 21:30N 36°51' W 076°18'0 0.0
2018-Mar-27 21:00N 36°51' W 076°18'0 0.0
2018-Mar-27 20:30N 36°51' W 076°18'0 0.0
2018-Mar-27 20:00N 36°51' W 076°18'0 0.0
2018-Mar-27 19:30N 36°51' W 076°18'0 0.0
2018-Mar-27 19:00N 36°51' W 076°18'0 0.0
2018-Mar-27 18:30N 36°51' W 076°18'0 0.0
2018-Mar-27 18:00N 36°51' W 076°18'0 0.0
2018-Mar-27 17:30N 36°51' W 076°18'0 0.0
2018-Mar-27 17:00N 36°51' W 076°18'0 0.0
2018-Mar-27 16:30N 36°51' W 076°18'0 0.0
2018-Mar-27 16:00N 36°51' W 076°18'0 0.0
2018-Mar-27 15:30N 36°51' W 076°18'0 0.0
2018-Mar-27 15:00N 36°51' W 076°18'0 0.0
2018-Mar-27 14:27N 36°51' W 076°18'0 0.0
2018-Mar-27 14:00N 36°51' W 076°18'0 0.0
2018-Mar-27 13:30N 36°51' W 076°18'0 0.0
2018-Mar-27 13:00N 36°51' W 076°18'0 0.0
2018-Mar-27 12:30N 36°51' W 076°18'0 0.0
2018-Mar-27 12:00N 36°51' W 076°18'0 0.0
2018-Mar-27 11:30N 36°51' W 076°18'0 0.0
2018-Mar-27 11:00N 36°51' W 076°18'0 0.0
2018-Mar-27 10:30N 36°51' W 076°18'0 0.0
2018-Mar-26 20:36N 36°51' W 076°18'0 0.0
2018-Mar-26 20:21N 36°51' W 076°18'0 0.0
2018-Mar-26 20:00N 36°51' W 076°18'0 0.0
2018-Mar-26 19:30N 36°51' W 076°18'0 0.0
2018-Mar-26 19:00N 36°51' W 076°18'0 0.0
2018-Mar-26 18:30N 36°51' W 076°18'0 0.0
2018-Mar-26 18:00N 36°51' W 076°18'0 0.0
2018-Mar-26 17:30N 36°51' W 076°18'0 0.0
2018-Mar-26 17:00N 36°51' W 076°18'0 0.0
2018-Mar-26 16:30N 36°51' W 076°18'0 0.0
2018-Mar-26 15:57N 36°51' W 076°18'0 0.0
2018-Mar-26 15:30N 36°51' W 076°18'0 0.0
2018-Mar-26 15:00N 36°51' W 076°18'0 0.0
2018-Mar-26 14:30N 36°51' W 076°18'0 0.0
2018-Mar-26 14:00N 36°51' W 076°18'0 0.0
2018-Mar-26 13:30N 36°51' W 076°18'0 0.0
2018-Mar-26 13:00N 36°51' W 076°18'0 0.0
2018-Mar-26 12:30N 36°51' W 076°18'0 0.0
2018-Mar-26 12:00N 36°51' W 076°18'0 0.0
2018-Mar-26 11:30N 36°51' W 076°18'0 0.0
2018-Mar-26 11:00N 36°51' W 076°18'0 0.0
2018-Mar-26 10:30N 36°51' W 076°18'0 0.0
2018-Mar-26 10:00N 36°51' W 076°18'0 0.0
2018-Mar-26 09:30N 36°51' W 076°18'0 0.0
2018-Mar-26 09:00N 36°51' W 076°18'0 0.0
2018-Mar-26 08:30N 36°51' W 076°18'0 0.0
2018-Mar-26 08:00N 36°51' W 076°18'0 0.0
2018-Mar-26 07:30N 36°51' W 076°18'0 0.0
2018-Mar-26 07:00N 36°51' W 076°18'0 0.0
2018-Mar-26 06:27N 36°51' W 076°18'0 0.0
2018-Mar-26 06:00N 36°51' W 076°18'0 0.0
2018-Mar-26 05:27N 36°51' W 076°18'0 0.0
2018-Mar-26 05:00N 36°51' W 076°18'0 0.0
2018-Mar-26 04:30N 36°51' W 076°18'0 0.0
2018-Mar-26 04:00N 36°51' W 076°18'0 0.0
2018-Mar-26 03:30N 36°51' W 076°18'0 0.0
2018-Mar-26 03:00N 36°51' W 076°18'0 0.0
2018-Mar-26 02:30N 36°51' W 076°18'0 0.0
2018-Mar-26 02:00N 36°51' W 076°18'0 0.0
2018-Mar-26 01:30N 36°51' W 076°18'0 0.0
2018-Mar-26 01:00N 36°51' W 076°18'0 0.0
2018-Mar-26 00:30N 36°51' W 076°18'0 0.0
2018-Mar-26 00:00N 36°51' W 076°18'0 0.0
2018-Mar-25 23:30N 36°51' W 076°18'0 0.0
2018-Mar-25 23:00N 36°51' W 076°18'0 0.0
2018-Mar-25 22:30N 36°51' W 076°18'0 0.0
2018-Mar-25 22:00N 36°51' W 076°18'0 0.0
2018-Mar-25 21:30N 36°51' W 076°18'0 0.0
2018-Mar-25 21:00N 36°51' W 076°18'0 0.0
2018-Mar-25 20:30N 36°51' W 076°18'0 0.0
2018-Mar-25 20:00N 36°51' W 076°18'0 0.0
2018-Mar-25 19:30N 36°51' W 076°18'0 0.0
2018-Mar-25 19:00N 36°51' W 076°18'0 0.0
2018-Mar-25 18:30N 36°51' W 076°18'0 0.0
2018-Mar-25 18:00N 36°51' W 076°18'0 0.0
2018-Mar-25 17:30N 36°51' W 076°18'0 0.0
2018-Mar-25 17:00N 36°51' W 076°18'0 0.0
2018-Mar-25 16:30N 36°51' W 076°18'0 0.0
2018-Mar-25 16:00N 36°51' W 076°18'0 0.0
2018-Mar-25 15:30N 36°51' W 076°18'0 0.0
2018-Mar-25 15:00N 36°51' W 076°18'0 0.0
2018-Mar-25 14:30N 36°51' W 076°18'0 0.0
2018-Mar-25 14:00N 36°51' W 076°18'0 0.0
2018-Mar-25 13:30N 36°51' W 076°18'0 0.0
2018-Mar-25 13:00N 36°51' W 076°18'0 0.0
2018-Mar-25 12:30N 36°51' W 076°18'0 0.0
2018-Mar-25 12:00N 36°51' W 076°18'0 0.0
2018-Mar-25 11:30N 36°51' W 076°18'0 0.0
2018-Mar-25 11:00N 36°51' W 076°18'0 0.0
2018-Mar-25 10:30N 36°51' W 076°18'0 0.0
2018-Mar-25 10:00N 36°51' W 076°18'0 0.0
2018-Mar-25 09:30N 36°51' W 076°18'0 0.0
2018-Mar-25 09:00N 36°51' W 076°18'0 0.0
2018-Mar-25 08:30N 36°51' W 076°18'0 0.0
2018-Mar-25 08:00N 36°51' W 076°18'0 0.0
2018-Mar-25 07:30N 36°51' W 076°18'0 0.0
2018-Mar-25 07:00N 36°51' W 076°18'0 0.0
2018-Mar-25 06:30N 36°51' W 076°18'0 0.0
2018-Mar-25 06:00N 36°51' W 076°18'0 0.0
2018-Mar-25 05:27N 36°51' W 076°18'0 0.0
2018-Mar-25 05:00N 36°51' W 076°18'0 0.0
2018-Mar-25 04:30N 36°51' W 076°18'0 0.0
2018-Mar-25 04:00N 36°51' W 076°18'0 0.0
2018-Mar-25 03:30N 36°51' W 076°18'0 0.0
2018-Mar-25 03:00N 36°51' W 076°18'0 0.0
2018-Mar-25 02:30N 36°51' W 076°18'0 0.0
2018-Mar-25 02:00N 36°51' W 076°18'0 0.0
2018-Mar-25 01:30N 36°51' W 076°18'0 0.0
2018-Mar-25 01:00N 36°51' W 076°18'0 0.0
2018-Mar-25 00:30N 36°51' W 076°18'0 0.0
2018-Mar-25 00:00N 36°51' W 076°18'0 0.0
2018-Mar-24 23:30N 36°51' W 076°18'0 0.0
2018-Mar-24 23:00N 36°51' W 076°18'0 0.0
2018-Mar-24 22:27N 36°51' W 076°18'0 0.0
2018-Mar-24 22:00N 36°51' W 076°18'0 0.0
2018-Mar-24 21:30N 36°51' W 076°18'0 0.0
2018-Mar-24 21:00N 36°51' W 076°18'0 0.0
2018-Mar-24 20:30N 36°51' W 076°18'0 0.0
2018-Mar-24 19:57N 36°51' W 076°18'0 0.0
2018-Mar-24 19:30N 36°51' W 076°18'0 0.0
2018-Mar-24 19:00N 36°51' W 076°18'0 0.0
2018-Mar-24 18:30N 36°51' W 076°18'0 0.0
2018-Mar-24 18:00N 36°51' W 076°18'0 0.0
2018-Mar-24 17:27N 36°51' W 076°18'0 0.0
2018-Mar-24 17:00N 36°51' W 076°18'0 0.0
2018-Mar-24 16:30N 36°51' W 076°18'0 0.0
2018-Mar-24 16:00N 36°51' W 076°18'0 0.0
2018-Mar-24 15:30N 36°51' W 076°18'0 0.0
2018-Mar-24 15:00N 36°51' W 076°18'0 0.0
2018-Mar-24 14:30N 36°51' W 076°18'0 0.0
2018-Mar-24 14:00N 36°51' W 076°18'0 0.0
2018-Mar-24 13:30N 36°51' W 076°18'0 0.0
2018-Mar-24 13:00N 36°51' W 076°18'0 0.0
2018-Mar-24 12:30N 36°51' W 076°18'0 0.0
2018-Mar-24 12:00N 36°51' W 076°18'0 0.0
2018-Mar-24 11:30N 36°51' W 076°18'0 0.0
2018-Mar-24 11:00N 36°51' W 076°18'0 0.0
2018-Mar-24 10:30N 36°51' W 076°18'0 0.0
2018-Mar-24 10:00N 36°51' W 076°18'0 0.0
2018-Mar-24 09:30N 36°51' W 076°18'0 0.0
2018-Mar-24 09:00N 36°51' W 076°18'0 0.0
2018-Mar-24 08:30N 36°51' W 076°18'0 0.1
2018-Mar-24 08:00N 36°51' W 076°18'0 0.1
2018-Mar-24 07:30N 36°51' W 076°18'0 0.0
2018-Mar-24 07:00N 36°51' W 076°18'0 0.0
2018-Mar-24 06:30N 36°51' W 076°18'0 0.0
2018-Mar-24 06:00N 36°51' W 076°18'0 0.0
2018-Mar-24 05:30N 36°51' W 076°18'0 0.0
2018-Mar-24 05:00N 36°51' W 076°18'0 0.0
2018-Mar-24 04:30N 36°51' W 076°18'0 0.0
2018-Mar-24 04:00N 36°51' W 076°18'0 0.0
2018-Mar-24 03:30N 36°51' W 076°18'0 0.0
2018-Mar-24 03:00N 36°51' W 076°18'0 0.0
2018-Mar-24 02:30N 36°51' W 076°18'0 0.0
2018-Mar-24 02:00N 36°51' W 076°18'0 0.0
2018-Mar-24 01:30N 36°51' W 076°18'0 0.0
2018-Mar-24 01:00N 36°51' W 076°18'0 0.0
2018-Mar-24 00:30N 36°51' W 076°18'0 0.0
2018-Mar-24 00:00N 36°51' W 076°18'0 0.0
2018-Mar-23 23:30N 36°51' W 076°18'0 0.0
2018-Mar-23 23:00N 36°51' W 076°18'0 0.0
2018-Mar-23 22:30N 36°51' W 076°18'0 0.0
2018-Mar-23 22:00N 36°51' W 076°18'0 0.0
2018-Mar-23 21:30N 36°51' W 076°18'0 0.0
2018-Mar-23 21:00N 36°51' W 076°18'0 0.0
2018-Mar-23 20:30N 36°51' W 076°18'0 0.0
2018-Mar-23 20:00N 36°51' W 076°18'0 0.0
2018-Mar-23 19:30N 36°51' W 076°18'0 0.0
2018-Mar-23 19:00N 36°51' W 076°18'0 0.0
2018-Mar-23 18:30N 36°51' W 076°18'0 0.0
2018-Mar-23 18:00N 36°51' W 076°18'0 0.0
2018-Mar-23 17:30N 36°51' W 076°18'0 0.0
2018-Mar-23 17:00N 36°51' W 076°18'0 0.0
2018-Mar-23 16:27N 36°51' W 076°18'0 0.0
2018-Mar-23 16:00N 36°51' W 076°18'  
Track history (hours):
 
Tides and Currents Weather Stations Pressure Air Temp Water Temp Dewpoint Dewpoint Depression Visibility Wind Speed Wind Dir Waves Ship Positions

Oceanographic research ship Hassler (USA)

Last reported at 2018-Apr-02 15:50 UTC. Time now 2018-May-28 01:27 UTC.
Position N 39°12' W 076°34'.
Warning: this ship's position is 55 days out of date.

Length 37 m; draft 3.8 m.

Type: . MMSI: 369970091.

Date/timePositionNaut miles runAvg speedWind from/ knotsBaromVisibWave heightAir tempDewpointWater temp
2018-Apr-02 15:50N 39°12' W 076°34'0 0.0
2018-Apr-02 15:08N 39°12' W 076°34'0 0.0
2018-Apr-02 14:56N 39°12' W 076°34'0 0.0
2018-Apr-02 14:24N 39°12' W 076°34'0 1.0
2018-Apr-02 14:00N 39°12' W 076°35'1 2.9
2018-Apr-02 13:30N 39°13' W 076°34'3 5.5
2018-Apr-02 13:00N 39°12' W 076°31'4 8.7
2018-Apr-02 12:30N 39°10' W 076°26'5 9.9
2018-Apr-02 11:57N 39°05' W 076°24'7 9.5
2018-Apr-02 11:15N 38°58' W 076°23'1 2.3
2018-Apr-02 10:46N 38°57' W 076°23'1 1.7
2018-Apr-02 10:20N 38°56' W 076°23'2 5.3
2018-Apr-02 10:00N 38°54' W 076°23'118 7.8
2018-Apr-01 18:53N 36°57' W 076°20'4 9.6
2018-Apr-01 18:30N 36°53' W 076°20'3 5.5
2018-Apr-01 18:00N 36°51' W 076°18'0 0.0
2018-Apr-01 17:30N 36°51' W 076°18'0 0.0
2018-Apr-01 17:00N 36°51' W 076°18'0 0.0
2018-Apr-01 16:30N 36°51' W 076°18'0 0.0
2018-Apr-01 16:00N 36°51' W 076°18'0 0.0
2018-Apr-01 15:30N 36°51' W 076°18'0 0.0
2018-Apr-01 15:00N 36°51' W 076°18'0 0.0
2018-Apr-01 14:30N 36°51' W 076°18'0 0.0
2018-Apr-01 14:00N 36°51' W 076°18'0 0.0
2018-Apr-01 13:30N 36°51' W 076°18'0 0.0
2018-Apr-01 13:00N 36°51' W 076°18'0 0.0
2018-Apr-01 12:30N 36°51' W 076°18'0 0.0
2018-Apr-01 12:00N 36°51' W 076°18'0 0.0
2018-Apr-01 11:30N 36°51' W 076°18'0 0.0
2018-Apr-01 11:00N 36°51' W 076°18'0 0.0
2018-Apr-01 10:30N 36°51' W 076°18'0 0.0
2018-Apr-01 10:00N 36°51' W 076°18'0 0.0
2018-Apr-01 09:30N 36°51' W 076°18'0 0.0
2018-Apr-01 09:00N 36°51' W 076°18'0 0.0
2018-Apr-01 08:30N 36°51' W 076°18'0 0.0
2018-Apr-01 08:00N 36°51' W 076°18'0 0.0
2018-Apr-01 07:30N 36°51' W 076°18'0 0.0
2018-Apr-01 07:00N 36°51' W 076°18'0 0.0
2018-Apr-01 06:30N 36°51' W 076°18'0 0.0
2018-Apr-01 06:00N 36°51' W 076°18'0 0.0
2018-Apr-01 05:30N 36°51' W 076°18'0 0.0
2018-Apr-01 05:00N 36°51' W 076°18'0 0.0
2018-Apr-01 04:30N 36°51' W 076°18'0 0.0
2018-Apr-01 04:00N 36°51' W 076°18'0 0.0
2018-Apr-01 03:30N 36°51' W 076°18'0 0.0
2018-Apr-01 03:00N 36°51' W 076°18'0 0.0
2018-Apr-01 02:30N 36°51' W 076°18'0 0.0
2018-Apr-01 02:00N 36°51' W 076°18'0 0.0
2018-Apr-01 01:30N 36°51' W 076°18'0 0.0
2018-Apr-01 01:00N 36°51' W 076°18'0 0.0
2018-Apr-01 00:30N 36°51' W 076°18'0 0.0
2018-Apr-01 00:00N 36°51' W 076°18'0 0.0
2018-Mar-31 23:30N 36°51' W 076°18'0 0.0
2018-Mar-31 22:57N 36°51' W 076°18'0 0.0
2018-Mar-31 22:30N 36°51' W 076°18'0 0.0
2018-Mar-31 22:00N 36°51' W 076°18'0 0.0
2018-Mar-31 21:30N 36°51' W 076°18'0 0.0
2018-Mar-31 21:00N 36°51' W 076°18'0 0.0
2018-Mar-31 20:30N 36°51' W 076°18'0 0.0
2018-Mar-31 20:00N 36°51' W 076°18'0 0.0
2018-Mar-31 19:30N 36°51' W 076°18'0 0.0
2018-Mar-31 19:00N 36°51' W 076°18'0 0.0
2018-Mar-31 18:30N 36°51' W 076°18'0 0.0
2018-Mar-31 18:00N 36°51' W 076°18'0 0.0
2018-Mar-31 17:30N 36°51' W 076°18'0 0.0
2018-Mar-31 17:00N 36°51' W 076°18'0 0.0
2018-Mar-31 16:30N 36°51' W 076°18'0 0.0
2018-Mar-31 16:00N 36°51' W 076°18'0 0.0
2018-Mar-31 15:30N 36°51' W 076°18'0 0.0
2018-Mar-31 15:00N 36°51' W 076°18'0 0.0
2018-Mar-31 14:30N 36°51' W 076°18'0 0.0
2018-Mar-31 14:00N 36°51' W 076°18'0 0.0
2018-Mar-31 13:30N 36°51' W 076°18'0 0.0
2018-Mar-31 13:00N 36°51' W 076°18'0 0.0
2018-Mar-31 12:30N 36°51' W 076°18'0 0.0
2018-Mar-31 12:00N 36°51' W 076°18'0 0.0
2018-Mar-31 11:30N 36°51' W 076°18'0 0.0
2018-Mar-31 11:00N 36°51' W 076°18'0 0.0
2018-Mar-31 10:30N 36°51' W 076°18'0 0.0
2018-Mar-31 10:00N 36°51' W 076°18'0 0.0
2018-Mar-31 09:30N 36°51' W 076°18'0 0.0
2018-Mar-31 09:00N 36°51' W 076°18'0 0.0
2018-Mar-31 08:30N 36°51' W 076°18'0 0.0
2018-Mar-31 08:00N 36°51' W 076°18'0 0.0
2018-Mar-31 07:30N 36°51' W 076°18'0 0.0
2018-Mar-31 07:00N 36°51' W 076°18'0 0.0
2018-Mar-31 06:30N 36°51' W 076°18'0 0.0
2018-Mar-31 06:00N 36°51' W 076°18'0 0.0
2018-Mar-31 05:30N 36°51' W 076°18'0 0.0
2018-Mar-31 05:00N 36°51' W 076°18'0 0.0
2018-Mar-31 04:30N 36°51' W 076°18'0 0.0
2018-Mar-31 04:00N 36°51' W 076°18'0 0.0
2018-Mar-31 03:30N 36°51' W 076°18'0 0.0
2018-Mar-31 03:00N 36°51' W 076°18'0 0.0
2018-Mar-31 02:30N 36°51' W 076°18'0 0.0
2018-Mar-31 02:00N 36°51' W 076°18'0 0.0
2018-Mar-31 01:30N 36°51' W 076°18'0 0.0
2018-Mar-31 01:00N 36°51' W 076°18'0 0.0
2018-Mar-31 00:30N 36°51' W 076°18'0 0.0
2018-Mar-31 00:00N 36°51' W 076°18'0 0.0
2018-Mar-30 23:30N 36°51' W 076°18'0 0.0
2018-Mar-30 23:00N 36°51' W 076°18'0 0.0
2018-Mar-30 22:30N 36°51' W 076°18'0 0.0
2018-Mar-30 22:00N 36°51' W 076°18'0 0.0
2018-Mar-30 21:30N 36°51' W 076°18'0 0.0
2018-Mar-30 21:00N 36°51' W 076°18'0 0.0
2018-Mar-30 20:30N 36°51' W 076°18'0 0.0
2018-Mar-30 20:00N 36°51' W 076°18'0 0.0
2018-Mar-30 19:30N 36°51' W 076°18'0 0.0
2018-Mar-30 19:00N 36°51' W 076°18'0 0.0
2018-Mar-30 18:30N 36°51' W 076°18'0 0.0
2018-Mar-30 18:00N 36°51' W 076°18'0 0.0
2018-Mar-30 17:30N 36°51' W 076°18'0 0.0
2018-Mar-30 17:00N 36°51' W 076°18'0 0.0
2018-Mar-30 16:30N 36°51' W 076°18'0 0.0
2018-Mar-30 16:00N 36°51' W 076°18'0 0.0
2018-Mar-30 15:30N 36°51' W 076°18'0 0.0
2018-Mar-30 15:00N 36°51' W 076°18'0 0.0
2018-Mar-30 14:30N 36°51' W 076°18'0 0.0
2018-Mar-30 14:00N 36°51' W 076°18'0 0.0
2018-Mar-30 13:30N 36°51' W 076°18'0 0.0
2018-Mar-30 13:00N 36°51' W 076°18'0 0.0
2018-Mar-30 12:30N 36°51' W 076°18'0 0.0
2018-Mar-30 12:00N 36°51' W 076°18'0 0.0
2018-Mar-30 11:30N 36°51' W 076°18'0 0.0
2018-Mar-30 11:00N 36°51' W 076°18'0 0.0
2018-Mar-30 10:30N 36°51' W 076°18'0 0.0
2018-Mar-30 10:00N 36°51' W 076°18'0 0.0
2018-Mar-30 09:30N 36°51' W 076°18'0 0.0
2018-Mar-30 09:00N 36°51' W 076°18'0 0.0
2018-Mar-30 08:30N 36°51' W 076°18'0 0.0
2018-Mar-30 08:00N 36°51' W 076°18'0 0.0
2018-Mar-30 07:30N 36°51' W 076°18'0 0.0
2018-Mar-30 07:00N 36°51' W 076°18'0 0.0
2018-Mar-30 06:30N 36°51' W 076°18'0 0.0
2018-Mar-30 06:00N 36°51' W 076°18'0 0.0
2018-Mar-30 05:30N 36°51' W 076°18'0 0.0
2018-Mar-30 05:00N 36°51' W 076°18'0 0.0
2018-Mar-30 04:30N 36°51' W 076°18'0 0.0
2018-Mar-30 04:00N 36°51' W 076°18'0 0.0
2018-Mar-30 03:30N 36°51' W 076°18'0 0.0
2018-Mar-30 03:00N 36°51' W 076°18'0 0.0
2018-Mar-30 02:30N 36°51' W 076°18'0 0.0
2018-Mar-30 02:00N 36°51' W 076°18'0 0.0
2018-Mar-30 01:30N 36°51' W 076°18'0 0.0
2018-Mar-30 01:00N 36°51' W 076°18'0 0.0
2018-Mar-30 00:30N 36°51' W 076°18'0 0.0
2018-Mar-30 00:00N 36°51' W 076°18'0 0.0
2018-Mar-29 23:30N 36°51' W 076°18'0 0.0
2018-Mar-29 23:00N 36°51' W 076°18'0 0.0
2018-Mar-29 22:27N 36°51' W 076°18'0 0.0
2018-Mar-29 22:00N 36°51' W 076°18'0 0.0
2018-Mar-29 21:30N 36°51' W 076°18'0 0.0
2018-Mar-29 21:00N 36°51' W 076°18'0 0.0
2018-Mar-29 20:30N 36°51' W 076°18'0 0.0
2018-Mar-29 20:00N 36°51' W 076°18'0 0.0
2018-Mar-29 19:30N 36°51' W 076°18'0 0.0
2018-Mar-29 19:00N 36°51' W 076°18'0 0.0
2018-Mar-29 18:30N 36°51' W 076°18'0 0.0
2018-Mar-29 18:00N 36°51' W 076°18'0 0.0
2018-Mar-29 17:30N 36°51' W 076°18'0 0.0
2018-Mar-29 17:00N 36°51' W 076°18'0 0.0
2018-Mar-29 16:30N 36°51' W 076°18'0 0.0
2018-Mar-29 16:00N 36°51' W 076°18'0 0.0
2018-Mar-29 15:30N 36°51' W 076°18'0 0.0
2018-Mar-29 15:00N 36°51' W 076°18'0 0.0
2018-Mar-29 14:30N 36°51' W 076°18'0 0.0
2018-Mar-29 14:00N 36°51' W 076°18'0 0.0
2018-Mar-29 13:30N 36°51' W 076°18'0 0.0
2018-Mar-29 13:00N 36°51' W 076°18'0 0.0
2018-Mar-29 12:30N 36°51' W 076°18'0 0.0
2018-Mar-29 12:00N 36°51' W 076°18'0 0.0
2018-Mar-29 11:30N 36°51' W 076°18'0 0.0
2018-Mar-29 11:00N 36°51' W 076°18'0 0.0
2018-Mar-29 10:30N 36°51' W 076°18'0 0.0
2018-Mar-29 10:00N 36°51' W 076°18'0 0.0
2018-Mar-29 09:30N 36°51' W 076°18'0 0.0
2018-Mar-29 09:00N 36°51' W 076°18'0 0.0
2018-Mar-29 08:30N 36°51' W 076°18'0 0.0
2018-Mar-29 08:00N 36°51' W 076°18'0 0.0
2018-Mar-29 07:30N 36°51' W 076°18'0 0.0
2018-Mar-29 07:00N 36°51' W 076°18'0 0.0
2018-Mar-29 06:30N 36°51' W 076°18'0 0.0
2018-Mar-29 06:00N 36°51' W 076°18'0 0.0
2018-Mar-29 05:30N 36°51' W 076°18'0 0.0
2018-Mar-29 05:00N 36°51' W 076°18'0 0.0
2018-Mar-29 04:30N 36°51' W 076°18'0 0.0
2018-Mar-29 04:00N 36°51' W 076°18'0 0.0
2018-Mar-29 03:30N 36°51' W 076°18'0 0.0
2018-Mar-29 03:00N 36°51' W 076°18'0 0.0
2018-Mar-29 02:27N 36°51' W 076°18'0 0.0
2018-Mar-29 02:00N 36°51' W 076°18'0 0.0
2018-Mar-29 01:30N 36°51' W 076°18'0 0.0
2018-Mar-29 01:00N 36°51' W 076°18'0 0.0
2018-Mar-29 00:30N 36°51' W 076°18'0 0.0
2018-Mar-29 00:00N 36°51' W 076°18'0 0.0
2018-Mar-28 23:30N 36°51' W 076°18'0 0.0
2018-Mar-28 23:00N 36°51' W 076°18'0 0.0
2018-Mar-28 22:30N 36°51' W 076°18'0 0.0
2018-Mar-28 22:00N 36°51' W 076°18'0 0.0
2018-Mar-28 21:30N 36°51' W 076°18'0 0.0
2018-Mar-28 21:00N 36°51' W 076°18'0 0.0
2018-Mar-28 20:30N 36°51' W 076°18'0 0.0
2018-Mar-28 20:00N 36°51' W 076°18'0 0.0
2018-Mar-28 19:30N 36°51' W 076°18'0 0.0
2018-Mar-28 19:00N 36°51' W 076°18'0 0.0
2018-Mar-28 18:30N 36°51' W 076°18'0 0.0
2018-Mar-28 18:00N 36°51' W 076°18'0 0.0
2018-Mar-28 17:30N 36°51' W 076°18'0 0.0
2018-Mar-28 17:00N 36°51' W 076°18'0 0.0
2018-Mar-28 16:30N 36°51' W 076°18'0 0.0
2018-Mar-28 16:00N 36°51' W 076°18'0 0.0
2018-Mar-28 15:30N 36°51' W 076°18'0 0.0
2018-Mar-28 14:57N 36°51' W 076°18'0 0.0
2018-Mar-28 14:27N 36°51' W 076°18'0 0.0
2018-Mar-28 14:00N 36°51' W 076°18'0 0.0
2018-Mar-28 13:30N 36°51' W 076°18'0 0.0
2018-Mar-28 13:00N 36°51' W 076°18'0 0.0
2018-Mar-28 12:30N 36°51' W 076°18'0 0.0
2018-Mar-28 12:00N 36°51' W 076°18'0 0.0
2018-Mar-28 11:30N 36°51' W 076°18'0 0.0
2018-Mar-28 11:00N 36°51' W 076°18'0 0.0
2018-Mar-28 10:30N 36°51' W 076°18'0 0.0
2018-Mar-28 10:00N 36°51' W 076°18'0 0.0
2018-Mar-28 09:30N 36°51' W 076°18'0 0.0
2018-Mar-28 09:00N 36°51' W 076°18'0 0.0
2018-Mar-28 08:30N 36°51' W 076°18'0 0.0
2018-Mar-28 08:00N 36°51' W 076°18'0 0.0
2018-Mar-28 07:30N 36°51' W 076°18'0 0.0
2018-Mar-28 07:00N 36°51' W 076°18'0 0.0
2018-Mar-28 06:30N 36°51' W 076°18'0 0.0
2018-Mar-28 06:00N 36°51' W 076°18'0 0.0
2018-Mar-28 05:30N 36°51' W 076°18'0 0.0
2018-Mar-28 05:00N 36°51' W 076°18'0 0.0
2018-Mar-28 04:30N 36°51' W 076°18'0 0.0
2018-Mar-28 04:00N 36°51' W 076°18'0 0.0
2018-Mar-28 03:30N 36°51' W 076°18'0 0.0
2018-Mar-28 03:00N 36°51' W 076°18'0 0.0
2018-Mar-28 02:30N 36°51' W 076°18'0 0.0
2018-Mar-28 01:54N 36°51' W 076°18'0 0.0
2018-Mar-28 01:30N 36°51' W 076°18'0 0.0
2018-Mar-28 01:00N 36°51' W 076°18'0 0.0
2018-Mar-28 00:30N 36°51' W 076°18'0 0.0
2018-Mar-28 00:00N 36°51' W 076°18'0 0.0
2018-Mar-27 23:30N 36°51' W 076°18'0 0.0
2018-Mar-27 23:00N 36°51' W 076°18'0 0.0
2018-Mar-27 22:30N 36°51' W 076°18'0 0.0
2018-Mar-27 22:00N 36°51' W 076°18'0 0.0
2018-Mar-27 21:30N 36°51' W 076°18'0 0.0
2018-Mar-27 21:00N 36°51' W 076°18'0 0.0
2018-Mar-27 20:30N 36°51' W 076°18'0 0.0
2018-Mar-27 20:00N 36°51' W 076°18'0 0.0
2018-Mar-27 19:30N 36°51' W 076°18'0 0.0
2018-Mar-27 19:00N 36°51' W 076°18'0 0.0
2018-Mar-27 18:30N 36°51' W 076°18'0 0.0
2018-Mar-27 18:00N 36°51' W 076°18'0 0.0
2018-Mar-27 17:30N 36°51' W 076°18'0 0.0
2018-Mar-27 17:00N 36°51' W 076°18'0 0.0
2018-Mar-27 16:30N 36°51' W 076°18'0 0.0
2018-Mar-27 16:00N 36°51' W 076°18'0 0.0
2018-Mar-27 15:30N 36°51' W 076°18'0 0.0
2018-Mar-27 15:00N 36°51' W 076°18'0 0.0
2018-Mar-27 14:27N 36°51' W 076°18'0 0.0
2018-Mar-27 14:00N 36°51' W 076°18'0 0.0
2018-Mar-27 13:30N 36°51' W 076°18'0 0.0
2018-Mar-27 13:00N 36°51' W 076°18'0 0.0
2018-Mar-27 12:30N 36°51' W 076°18'0 0.0
2018-Mar-27 12:00N 36°51' W 076°18'0 0.0
2018-Mar-27 11:30N 36°51' W 076°18'0 0.0
2018-Mar-27 11:00N 36°51' W 076°18'0 0.0
2018-Mar-27 10:30N 36°51' W 076°18'0 0.0
2018-Mar-26 20:36N 36°51' W 076°18'0 0.0
2018-Mar-26 20:21N 36°51' W 076°18'0 0.0
2018-Mar-26 20:00N 36°51' W 076°18'0 0.0
2018-Mar-26 19:30N 36°51' W 076°18'0 0.0
2018-Mar-26 19:00N 36°51' W 076°18'0 0.0
2018-Mar-26 18:30N 36°51' W 076°18'0 0.0
2018-Mar-26 18:00N 36°51' W 076°18'0 0.0
2018-Mar-26 17:30N 36°51' W 076°18'0 0.0
2018-Mar-26 17:00N 36°51' W 076°18'0 0.0
2018-Mar-26 16:30N 36°51' W 076°18'0 0.0
2018-Mar-26 15:57N 36°51' W 076°18'0 0.0
2018-Mar-26 15:30N 36°51' W 076°18'0 0.0
2018-Mar-26 15:00N 36°51' W 076°18'0 0.0
2018-Mar-26 14:30N 36°51' W 076°18'0 0.0
2018-Mar-26 14:00N 36°51' W 076°18'0 0.0
2018-Mar-26 13:30N 36°51' W 076°18'0 0.0
2018-Mar-26 13:00N 36°51' W 076°18'0 0.0
2018-Mar-26 12:30N 36°51' W 076°18'0 0.0
2018-Mar-26 12:00N 36°51' W 076°18'0 0.0
2018-Mar-26 11:30N 36°51' W 076°18'0 0.0
2018-Mar-26 11:00N 36°51' W 076°18'0 0.0
2018-Mar-26 10:30N 36°51' W 076°18'0 0.0
2018-Mar-26 10:00N 36°51' W 076°18'0 0.0
2018-Mar-26 09:30N 36°51' W 076°18'0 0.0
2018-Mar-26 09:00N 36°51' W 076°18'0 0.0
2018-Mar-26 08:30N 36°51' W 076°18'0 0.0
2018-Mar-26 08:00N 36°51' W 076°18'0 0.0
2018-Mar-26 07:30N 36°51' W 076°18'0 0.0
2018-Mar-26 07:00N 36°51' W 076°18'0 0.0
2018-Mar-26 06:27N 36°51' W 076°18'0 0.0
2018-Mar-26 06:00N 36°51' W 076°18'0 0.0
2018-Mar-26 05:27N 36°51' W 076°18'0 0.0
2018-Mar-26 05:00N 36°51' W 076°18'0 0.0
2018-Mar-26 04:30N 36°51' W 076°18'0 0.0
2018-Mar-26 04:00N 36°51' W 076°18'0 0.0
2018-Mar-26 03:30N 36°51' W 076°18'0 0.0
2018-Mar-26 03:00N 36°51' W 076°18'0 0.0
2018-Mar-26 02:30N 36°51' W 076°18'0 0.0
2018-Mar-26 02:00N 36°51' W 076°18'0 0.0
2018-Mar-26 01:30N 36°51' W 076°18'0 0.0
2018-Mar-26 01:00N 36°51' W 076°18'0 0.0
2018-Mar-26 00:30N 36°51' W 076°18'0 0.0
2018-Mar-26 00:00N 36°51' W 076°18'0 0.0
2018-Mar-25 23:30N 36°51' W 076°18'0 0.0
2018-Mar-25 23:00N 36°51' W 076°18'0 0.0
2018-Mar-25 22:30N 36°51' W 076°18'0 0.0
2018-Mar-25 22:00N 36°51' W 076°18'0 0.0
2018-Mar-25 21:30N 36°51' W 076°18'0 0.0
2018-Mar-25 21:00N 36°51' W 076°18'0 0.0
2018-Mar-25 20:30N 36°51' W 076°18'0 0.0
2018-Mar-25 20:00N 36°51' W 076°18'0 0.0
2018-Mar-25 19:30N 36°51' W 076°18'0 0.0
2018-Mar-25 19:00N 36°51' W 076°18'0 0.0
2018-Mar-25 18:30N 36°51' W 076°18'0 0.0
2018-Mar-25 18:00N 36°51' W 076°18'0 0.0
2018-Mar-25 17:30N 36°51' W 076°18'0 0.0
2018-Mar-25 17:00N 36°51' W 076°18'0 0.0
2018-Mar-25 16:30N 36°51' W 076°18'0 0.0
2018-Mar-25 16:00N 36°51' W 076°18'0 0.0
2018-Mar-25 15:30N 36°51' W 076°18'0 0.0
2018-Mar-25 15:00N 36°51' W 076°18'0 0.0
2018-Mar-25 14:30N 36°51' W 076°18'0 0.0
2018-Mar-25 14:00N 36°51' W 076°18'0 0.0
2018-Mar-25 13:30N 36°51' W 076°18'0 0.0
2018-Mar-25 13:00N 36°51' W 076°18'0 0.0
2018-Mar-25 12:30N 36°51' W 076°18'0 0.0
2018-Mar-25 12:00N 36°51' W 076°18'0 0.0
2018-Mar-25 11:30N 36°51' W 076°18'0 0.0
2018-Mar-25 11:00N 36°51' W 076°18'0 0.0
2018-Mar-25 10:30N 36°51' W 076°18'0 0.0
2018-Mar-25 10:00N 36°51' W 076°18'0 0.0
2018-Mar-25 09:30N 36°51' W 076°18'0 0.0
2018-Mar-25 09:00N 36°51' W 076°18'0 0.0
2018-Mar-25 08:30N 36°51' W 076°18'0 0.0
2018-Mar-25 08:00N 36°51' W 076°18'0 0.0
2018-Mar-25 07:30N 36°51' W 076°18'0 0.0
2018-Mar-25 07:00N 36°51' W 076°18'0 0.0
2018-Mar-25 06:30N 36°51' W 076°18'0 0.0
2018-Mar-25 06:00N 36°51' W 076°18'0 0.0
2018-Mar-25 05:27N 36°51' W 076°18'0 0.0
2018-Mar-25 05:00N 36°51' W 076°18'0 0.0
2018-Mar-25 04:30N 36°51' W 076°18'0 0.0
2018-Mar-25 04:00N 36°51' W 076°18'0 0.0
2018-Mar-25 03:30N 36°51' W 076°18'0 0.0
2018-Mar-25 03:00N 36°51' W 076°18'0 0.0
2018-Mar-25 02:30N 36°51' W 076°18'0 0.0
2018-Mar-25 02:00N 36°51' W 076°18'0 0.0
2018-Mar-25 01:30N 36°51' W 076°18'0 0.0
2018-Mar-25 01:00N 36°51' W 076°18'0 0.0
2018-Mar-25 00:30N 36°51' W 076°18'0 0.0
2018-Mar-25 00:00N 36°51' W 076°18'0 0.0
2018-Mar-24 23:30N 36°51' W 076°18'0 0.0
2018-Mar-24 23:00N 36°51' W 076°18'0 0.0
2018-Mar-24 22:27N 36°51' W 076°18'0 0.0
2018-Mar-24 22:00N 36°51' W 076°18'0 0.0
2018-Mar-24 21:30N 36°51' W 076°18'0 0.0
2018-Mar-24 21:00N 36°51' W 076°18'0 0.0
2018-Mar-24 20:30N 36°51' W 076°18'0 0.0
2018-Mar-24 19:57N 36°51' W 076°18'0 0.0
2018-Mar-24 19:30N 36°51' W 076°18'0 0.0
2018-Mar-24 19:00N 36°51' W 076°18'0 0.0
2018-Mar-24 18:30N 36°51' W 076°18'0 0.0
2018-Mar-24 18:00N 36°51' W 076°18'0 0.0
2018-Mar-24 17:27N 36°51' W 076°18'0 0.0
2018-Mar-24 17:00N 36°51' W 076°18'0 0.0
2018-Mar-24 16:30N 36°51' W 076°18'0 0.0
2018-Mar-24 16:00N 36°51' W 076°18'0 0.0
2018-Mar-24 15:30N 36°51' W 076°18'0 0.0
2018-Mar-24 15:00N 36°51' W 076°18'0 0.0
2018-Mar-24 14:30N 36°51' W 076°18'0 0.0
2018-Mar-24 14:00N 36°51' W 076°18'0 0.0
2018-Mar-24 13:30N 36°51' W 076°18'0 0.0
2018-Mar-24 13:00N 36°51' W 076°18'0 0.0
2018-Mar-24 12:30N 36°51' W 076°18'0 0.0
2018-Mar-24 12:00N 36°51' W 076°18'0 0.0
2018-Mar-24 11:30N 36°51' W 076°18'0 0.0
2018-Mar-24 11:00N 36°51' W 076°18'0 0.0
2018-Mar-24 10:30N 36°51' W 076°18'0 0.0
2018-Mar-24 10:00N 36°51' W 076°18'0 0.0
2018-Mar-24 09:30N 36°51' W 076°18'0 0.0
2018-Mar-24 09:00N 36°51' W 076°18'0 0.0
2018-Mar-24 08:30N 36°51' W 076°18'0 0.1
2018-Mar-24 08:00N 36°51' W 076°18'0 0.1
2018-Mar-24 07:30N 36°51' W 076°18'0 0.0
2018-Mar-24 07:00N 36°51' W 076°18'0 0.0
2018-Mar-24 06:30N 36°51' W 076°18'0 0.0
2018-Mar-24 06:00N 36°51' W 076°18'0 0.0
2018-Mar-24 05:30N 36°51' W 076°18'0 0.0
2018-Mar-24 05:00N 36°51' W 076°18'0 0.0
2018-Mar-24 04:30N 36°51' W 076°18'0 0.0
2018-Mar-24 04:00N 36°51' W 076°18'0 0.0
2018-Mar-24 03:30N 36°51' W 076°18'0 0.0
2018-Mar-24 03:00N 36°51' W 076°18'0 0.0
2018-Mar-24 02:30N 36°51' W 076°18'0 0.0
2018-Mar-24 02:00N 36°51' W 076°18'0 0.0
2018-Mar-24 01:30N 36°51' W 076°18'0 0.0
2018-Mar-24 01:00N 36°51' W 076°18'0 0.0
2018-Mar-24 00:30N 36°51' W 076°18'0 0.0
2018-Mar-24 00:00N 36°51' W 076°18'0 0.0
2018-Mar-23 23:30N 36°51' W 076°18'0 0.0
2018-Mar-23 23:00N 36°51' W 076°18'0 0.0
2018-Mar-23 22:30N 36°51' W 076°18'0 0.0
2018-Mar-23 22:00N 36°51' W 076°18'0 0.0
2018-Mar-23 21:30N 36°51' W 076°18'0 0.0
2018-Mar-23 21:00N 36°51' W 076°18'0 0.0
2018-Mar-23 20:30N 36°51' W 076°18'0 0.0
2018-Mar-23 20:00N 36°51' W 076°18'0 0.0
2018-Mar-23 19:30N 36°51' W 076°18'0 0.0
2018-Mar-23 19:00N 36°51' W 076°18'0 0.0
2018-Mar-23 18:30N 36°51' W 076°18'0 0.0
2018-Mar-23 18:00N 36°51' W 076°18'0 0.0
2018-Mar-23 17:30N 36°51' W 076°18'0 0.0
2018-Mar-23 17:00N 36°51' W 076°18'0 0.0
2018-Mar-23 16:27N 36°51' W 076°18'0 0.0
2018-Mar-23 16:00N 36°51' W 076°18'  

Dump ship's entire track history